Time;durP1;ratioP1;P1;durP2;ratioP2;P2;SDS_P1;SDS_P2;PMS_P1;PMS_P2;Temp;Humidity;BMP_temperature;BMP_pressure;BME280_temperature;BME280_humidity;BME280_pressure;Samples;Min_cycle;Max_cycle;Signal;HPM_P1;HPM_P2
2023/01/23 00:01:05;;;;;;;18.48;11.75;;;17.10;75.50;;;18.02;43.06;100078.41;5066794;27;20058;-81
2023/01/23 00:03:32;;;;;;;19.02;10.70;;;17.10;75.50;;;18.02;42.80;100076.47;5084952;27;20027;-81
2023/01/23 00:06:03;;;;;;;21.25;11.52;;;17.10;75.50;;;18.03;42.91;100082.78;5104511;27;20039;-80
2023/01/23 00:08:30;;;;;;;16.23;10.30;;;17.10;75.50;;;18.00;43.26;100082.25;5085580;27;20043;-81
2023/01/23 00:10:55;;;;;;;19.63;10.93;;;17.20;75.60;;;18.00;43.03;100095.16;5100216;27;20436;-81
2023/01/23 00:13:22;;;;;;;20.65;13.05;;;17.20;75.50;;;18.02;43.20;100087.47;5087439;27;20039;-80
2023/01/23 00:15:48;;;;;;;16.45;10.75;;;17.20;75.60;;;18.01;42.85;100102.28;5100576;27;20122;-81
2023/01/23 00:18:15;;;;;;;17.50;11.45;;;17.20;75.60;;;18.03;43.01;100105.56;5083561;27;20042;-81
2023/01/23 00:20:41;;;;;;;21.17;12.63;;;17.20;76.40;;;18.00;43.03;100106.16;5083928;27;20051;-81
2023/01/23 00:23:09;;;;;;;16.55;10.45;;;17.20;75.60;;;17.98;43.03;100113.84;5084009;27;20032;-80
2023/01/23 00:25:35;;;;;;;26.23;10.55;;;17.20;75.60;;;17.99;43.05;100105.34;5084699;27;20172;-81
2023/01/23 00:28:02;;;;;;;17.67;10.80;;;17.10;75.50;;;17.98;42.96;100109.19;5083681;27;20750;-81
2023/01/23 00:30:28;;;;;;;23.00;11.98;;;17.10;75.50;;;17.98;42.95;100098.19;5083883;27;20048;-81
2023/01/23 00:32:54;;;;;;;17.55;10.45;;;17.10;75.50;;;17.98;43.07;100106.44;5080271;27;20042;-80
2023/01/23 00:35:21;;;;;;;20.23;12.13;;;17.10;75.50;;;17.98;42.86;100122.91;5078481;27;20043;-80
2023/01/23 00:37:47;;;;;;;16.17;10.98;;;17.10;75.50;;;17.98;42.97;100128.38;5079896;27;20839;-80
2023/01/23 00:40:13;;;;;;;17.67;10.38;;;17.10;75.50;;;17.98;42.96;100133.88;5080069;27;20035;-80
2023/01/23 00:42:39;;;;;;;14.45;10.75;;;17.10;75.50;;;18.00;42.86;100128.94;5064981;27;20038;-80
2023/01/23 00:45:06;;;;;;;20.10;11.70;;;17.10;75.50;;;17.99;42.88;100132.78;5094694;28;20047;-80
2023/01/23 00:47:32;;;;;;;14.15;9.77;;;17.10;75.50;;;17.96;42.98;100125.16;5075390;27;20130;-80
2023/01/23 00:49:59;;;;;;;16.92;10.85;;;17.10;75.50;;;18.00;42.85;100128.94;5081077;27;20039;-80
2023/01/23 00:52:26;;;;;;;17.17;9.90;;;17.10;75.50;;;17.99;43.07;100130.06;5096158;27;20050;-80
2023/01/23 00:54:52;;;;;;;17.50;10.45;;;17.10;75.50;;;17.99;42.95;100137.47;5094935;27;20079;-80
2023/01/23 00:57:18;;;;;;;20.38;11.75;;;17.10;75.50;;;17.96;42.96;100144.34;5080393;27;20446;-80
2023/01/23 00:59:44;;;;;;;15.77;11.65;;;17.20;75.60;;;17.98;42.89;100136.63;5078015;27;20055;-80
2023/01/23 01:02:10;;;;;;;14.93;9.82;;;17.10;75.50;;;17.98;42.90;100136.63;5060247;27;20042;-80
2023/01/23 01:04:36;;;;;;;19.95;12.13;;;17.10;75.50;;;17.95;42.97;100139.16;5078559;27;20043;-80
2023/01/23 01:07:02;;;;;;;13.82;9.13;;;17.10;75.50;;;17.92;43.27;100140.53;5077588;27;20092;-80
2023/01/23 01:09:28;;;;;;;16.13;9.63;;;17.10;75.50;;;17.94;43.05;100143.81;5079060;27;20420;-80
2023/01/23 01:11:54;;;;;;;17.13;10.48;;;17.10;75.50;;;17.94;42.93;100143.00;5113501;27;20039;-80
2023/01/23 01:14:20;;;;;;;19.00;11.13;;;17.10;75.50;;;17.94;42.84;100149.31;5095902;27;20168;-80
2023/01/23 01:16:47;;;;;;;15.80;10.75;;;17.10;75.50;;;17.93;42.91;100155.09;5063008;27;20043;-80
2023/01/23 01:19:13;;;;;;;21.48;11.68;;;17.10;75.50;;;17.94;42.97;100151.25;5114331;27;20043;-80
2023/01/23 01:21:41;;;;;;;17.48;10.45;;;17.10;75.50;;;17.95;42.84;100148.19;5077186;27;20039;-80
2023/01/23 01:24:07;;;;;;;15.30;10.65;;;17.10;75.50;;;17.95;43.21;100139.16;5079024;27;20126;-80
2023/01/23 01:26:33;;;;;;;14.75;10.23;;;17.10;75.50;;;17.92;42.86;100140.53;5101433;27;20482;-81
2023/01/23 01:28:59;;;;;;;14.18;10.02;;;17.10;75.50;;;17.92;43.01;100145.22;5080592;27;20054;-81
2023/01/23 01:31:26;;;;;;;19.30;10.45;;;17.10;75.50;;;17.93;42.82;100144.09;5081650;27;20035;-81
2023/01/23 01:33:52;;;;;;;16.90;10.48;;;17.10;75.50;;;17.94;42.82;100148.50;5078874;27;20118;-81
2023/01/23 01:36:20;;;;;;;16.73;9.85;;;17.10;75.50;;;17.94;42.86;100138.34;5064188;27;20374;-81
2023/01/23 01:38:46;;;;;;;19.80;10.98;;;17.10;75.50;;;17.92;43.10;100137.00;5096595;27;20075;-81
2023/01/23 01:41:13;;;;;;;15.98;9.90;;;17.10;75.50;;;17.95;43.03;100150.94;5101755;27;20118;-81
2023/01/23 01:43:39;;;;;;;18.55;11.18;;;17.10;75.50;;;17.96;42.85;100154.50;5044625;27;20101;-80
2023/01/23 01:46:05;;;;;;;18.02;11.00;;;17.10;75.50;;;17.94;42.96;100162.22;5095592;27;20137;-80
2023/01/23 01:48:37;;;;;;;15.07;10.43;;;17.10;75.50;;;17.93;42.96;100158.66;5108008;27;20103;-80
2023/01/23 01:51:10;;;;;;;17.10;10.50;;;17.10;75.50;;;17.91;43.24;100155.41;5108375;27;20043;-80
2023/01/23 01:53:37;;;;;;;15.55;10.50;;;17.10;75.50;;;17.90;42.80;100150.19;5100100;27;20040;-81
2023/01/23 01:56:04;;;;;;;17.77;9.85;;;17.10;75.50;;;17.90;42.93;100153.75;5079251;27;20039;-80
2023/01/23 01:58:30;;;;;;;13.60;9.30;;;17.10;75.50;;;17.90;42.77;100151.00;5077941;27;20050;-80
2023/01/23 02:00:56;;;;;;;13.55;9.38;;;17.10;75.50;;;17.92;43.04;100143.28;5079512;27;20104;-80
2023/01/23 02:03:22;;;;;;;17.08;10.48;;;17.10;76.30;;;17.92;42.79;100140.53;5078875;27;20507;-80
2023/01/23 02:05:48;;;;;;;20.02;10.05;;;17.10;75.50;;;17.89;42.96;100141.13;5062860;27;20045;-80
2023/01/23 02:08:32;;;;;;;18.17;9.98;;;17.10;75.50;;;17.87;42.93;100142.53;5093708;27;20039;-80
2023/01/23 02:11:00;;;;;;;15.02;10.05;;;17.10;75.50;;;17.89;42.67;100149.38;5095968;27;20035;-80
2023/01/23 02:13:38;;;;;;;20.65;10.60;;;17.10;75.50;;;17.87;43.07;100153.50;5078632;27;20350;-81
2023/01/23 02:16:07;;;;;;;15.38;10.10;;;17.10;75.50;;;17.88;42.85;100155.13;5095090;28;20027;-81
2023/01/23 02:18:34;;;;;;;14.65;10.52;;;17.10;75.50;;;17.90;43.08;100161.97;5099320;27;20057;-80
2023/01/23 02:21:06;;;;;;;14.48;8.98;;;17.10;75.50;;;17.88;43.05;100164.19;5100771;27;20035;-80
2023/01/23 02:23:50;;;;;;;14.45;10.25;;;17.10;75.50;;;17.88;42.93;100163.38;5066242;27;20044;-80
2023/01/23 02:26:28;;;;;;;14.32;10.30;;;17.10;75.50;;;17.85;43.13;100156.53;5132753;27;20066;-80
2023/01/23 02:28:54;;;;;;;16.70;9.95;;;17.10;75.50;;;17.87;42.70;100167.22;5084274;27;20486;-80
2023/01/23 02:31:22;;;;;;;13.50;9.93;;;17.10;75.50;;;17.87;43.01;100170.78;5095845;27;20430;-80
2023/01/23 02:33:51;;;;;;;14.50;10.15;;;17.00;75.40;;;17.85;42.87;100169.44;5074276;27;20475;-80
2023/01/23 02:36:20;;;;;;;15.80;10.18;;;17.10;75.50;;;17.88;42.98;100169.66;5079274;27;20195;-79
2023/01/23 02:39:12;;;;;;;17.17;9.75;;;17.10;75.50;;;17.85;43.10;100178.50;5096030;27;20043;-80
2023/01/23 02:41:41;;;;;;;15.10;9.90;;;17.10;75.50;;;17.84;43.03;100176.88;5079625;28;20049;-80
2023/01/23 02:44:28;;;;;;;12.85;9.40;;;17.00;75.40;;;17.85;42.96;100170.25;5081397;28;20043;-80
2023/01/23 02:46:57;;;;;;;14.50;9.07;;;17.00;75.40;;;17.85;43.03;100174.94;5076218;28;20074;-80
2023/01/23 02:49:23;;;;;;;18.58;10.20;;;17.10;75.50;;;17.85;43.14;100181.22;5115117;28;20430;-80
2023/01/23 02:51:50;;;;;;;19.67;11.73;;;17.00;75.40;;;17.84;43.11;100174.13;5082303;28;20035;-81
2023/01/23 02:54:16;;;;;;;12.93;8.88;;;17.00;75.40;;;17.84;43.10;100179.59;5097109;28;20149;-80
2023/01/23 02:56:42;;;;;;;14.30;9.02;;;17.10;75.50;;;17.85;43.10;100173.00;5089380;28;20517;-81
2023/01/23 03:01:53;;;;;;;16.08;9.82;;;17.10;75.50;;;17.86;42.86;100180.16;5102709;28;20043;-80
2023/01/23 03:04:19;;;;;;;12.75;8.82;;;17.10;75.50;;;17.86;42.99;100176.56;5065801;28;20062;-80
2023/01/23 03:06:45;;;;;;;13.93;9.40;;;17.00;75.40;;;17.88;42.88;100174.34;5114879;28;20045;-81
2023/01/23 03:09:14;;;;;;;16.13;9.95;;;17.10;75.50;;;17.89;42.99;100178.75;5093048;27;20043;-81
2023/01/23 03:11:42;;;;;;;16.00;9.82;;;17.10;75.50;;;17.88;43.08;100179.84;5066163;27;20090;-81
2023/01/23 03:14:14;;;;;;;17.85;10.05;;;17.10;75.50;;;17.89;42.94;100185.06;5086425;27;20066;-80
2023/01/23 03:16:41;;;;;;;13.02;9.50;;;17.10;75.40;;;17.88;42.85;100190.81;5084872;27;20347;-80
2023/01/23 03:19:08;;;;;;;13.85;10.20;;;17.10;75.50;;;17.94;42.91;100189.69;5079197;27;20047;-80
2023/01/23 03:21:39;;;;;;;15.00;9.95;;;17.10;75.50;;;17.96;42.63;100182.78;5100139;27;20031;-80
2023/01/23 03:24:10;;;;;;;13.60;9.18;;;17.10;75.50;;;17.94;42.76;100181.44;5111225;27;20051;-80
2023/01/23 03:26:40;;;;;;;12.35;8.55;;;17.10;75.40;;;17.97;42.69;100191.84;5086983;27;20042;-80
2023/01/23 03:31:52;;;;;;;13.85;8.52;;;17.10;75.50;;;18.07;42.74;100188.19;5120406;27;20045;-81
2023/01/23 03:34:20;;;;;;;16.85;9.80;;;17.10;75.40;;;18.04;42.63;100194.22;5100570;27;20125;-80
2023/01/23 03:36:47;;;;;;;13.35;9.27;;;17.10;75.30;;;18.08;42.69;100195.31;5079293;27;20559;-80
2023/01/23 03:41:58;;;;;;;13.80;8.93;;;17.20;75.00;;;18.07;42.56;100199.16;5089630;27;20041;-80
2023/01/23 03:44:24;;;;;;;15.60;9.68;;;17.30;75.10;;;18.11;42.66;100209.25;5093462;27;20039;-80
2023/01/23 03:46:51;;;;;;;17.45;10.35;;;17.30;75.10;;;18.11;42.52;100203.78;5081298;27;20412;-80
2023/01/23 03:49:17;;;;;;;12.88;8.82;;;17.20;75.00;;;18.11;42.41;100205.72;5062618;27;20401;-80
2023/01/23 03:51:44;;;;;;;15.20;9.73;;;17.30;75.00;;;18.12;42.74;100207.38;5082382;27;20111;-80
2023/01/23 03:54:10;;;;;;;16.67;9.80;;;17.30;75.10;;;18.14;42.45;100207.88;5064681;27;20043;-80
2023/01/23 03:56:37;;;;;;;12.02;9.18;;;17.30;74.90;;;18.16;42.49;100206.47;5067258;27;20074;-80
2023/01/23 03:59:03;;;;;;;14.55;9.18;;;17.30;74.80;;;18.19;42.37;100205.91;5081195;27;20039;-80
2023/01/23 04:01:29;;;;;;;13.82;9.00;;;17.30;74.80;;;18.18;42.83;100201.50;5061788;27;20039;-80
2023/01/23 04:03:55;;;;;;;14.20;8.23;;;17.30;74.90;;;18.21;42.32;100203.66;5076330;27;20039;-80
2023/01/23 04:06:21;;;;;;;14.90;8.73;;;17.30;74.90;;;18.26;42.33;100211.03;5095624;27;20035;-80
2023/01/23 04:08:47;;;;;;;15.20;9.20;;;17.50;74.90;;;18.26;42.29;100212.97;5067682;27;20057;-80
2023/01/23 04:11:13;;;;;;;15.85;9.60;;;17.40;74.60;;;18.29;42.50;100210.47;5096483;27;20040;-80
2023/01/23 04:13:39;;;;;;;12.23;8.35;;;17.50;74.60;;;18.33;41.96;100219.75;5067748;27;20039;-81
2023/01/23 04:16:06;;;;;;;12.18;8.32;;;17.50;74.60;;;18.35;42.42;100223.03;5083321;27;20459;-80
2023/01/23 04:18:32;;;;;;;13.93;9.27;;;17.50;74.60;;;18.36;42.11;100221.94;5080508;27;20047;-80
2023/01/23 04:20:59;;;;;;;12.93;9.00;;;17.60;74.50;;;18.36;42.17;100226.59;5077945;27;20043;-80
2023/01/23 04:23:25;;;;;;;12.57;8.77;;;17.60;74.50;;;18.40;42.30;100231.22;5072255;27;20061;-80
2023/01/23 04:25:51;;;;;;;12.95;8.40;;;17.60;74.60;;;18.42;42.11;100234.50;5080255;27;20038;-81
2023/01/23 04:28:17;;;;;;;14.00;8.90;;;17.60;74.60;;;18.44;42.16;100232.31;5055852;27;20031;-80
2023/01/23 04:30:44;;;;;;;12.43;7.43;;;17.60;74.50;;;18.48;41.98;100226.22;5090664;27;20066;-80
2023/01/23 04:33:10;;;;;;;11.70;8.55;;;17.70;74.50;;;18.50;42.34;100230.31;5063921;27;20899;-80
2023/01/23 04:35:36;;;;;;;14.98;8.73;;;17.70;74.40;;;18.50;41.96;100229.50;5081296;27;20069;-80
2023/01/23 04:38:02;;;;;;;12.55;9.10;;;17.60;74.40;;;18.53;42.15;100239.91;5072631;27;20474;-80
2023/01/23 04:40:28;;;;;;;9.52;7.45;;;17.70;74.40;;;18.54;41.97;100241.53;5101160;27;20410;-81
2023/01/23 04:42:54;;;;;;;12.75;9.32;;;17.70;74.50;;;18.56;41.96;100236.56;5081854;27;20037;-81
2023/01/23 04:45:21;;;;;;;11.80;7.35;;;17.70;74.40;;;18.56;42.29;100237.38;5098223;27;20039;-82
2023/01/23 04:47:47;;;;;;;12.07;8.13;;;17.80;74.30;;;18.58;41.96;100242.59;5083479;27;20196;-83
2023/01/23 04:50:13;;;;;;;12.95;8.60;;;17.70;74.10;;;18.57;41.75;100246.44;5100445;27;20039;-82
2023/01/23 04:52:39;;;;;;;12.85;8.48;;;17.70;74.90;;;18.58;41.92;100245.34;5102408;27;20046;-83
2023/01/23 04:55:06;;;;;;;16.33;9.65;;;17.70;74.20;;;18.59;41.65;100244.22;5083337;27;20039;-83
2023/01/23 04:57:32;;;;;;;12.15;8.50;;;17.70;74.00;;;18.61;41.58;100250.25;5062809;27;20495;-83
2023/01/23 04:59:58;;;;;;;13.57;9.00;;;17.70;74.00;;;18.60;41.77;100251.38;5099316;27;20031;-83
2023/01/23 05:02:25;;;;;;;13.55;8.13;;;17.70;73.90;;;18.60;41.63;100246.69;5093120;27;20759;-83
2023/01/23 05:04:51;;;;;;;11.00;7.85;;;17.80;73.90;;;18.61;41.63;100245.56;5082273;27;20067;-83
2023/01/23 05:07:17;;;;;;;13.80;9.02;;;17.70;73.90;;;18.63;41.58;100251.59;5094842;27;20047;-82
2023/01/23 05:09:43;;;;;;;14.05;8.65;;;17.80;74.00;;;18.62;41.69;100249.13;5083163;27;20432;-83
2023/01/23 05:12:10;;;;;;;13.20;9.60;;;17.70;73.90;;;18.63;41.49;100240.59;5100366;27;20039;-83
2023/01/23 05:14:36;;;;;;;11.73;8.07;;;17.80;73.90;;;18.64;41.48;100244.97;5112775;27;20061;-82
2023/01/23 05:17:02;;;;;;;13.85;8.65;;;17.70;73.80;;;18.63;41.55;100240.59;5085474;27;20042;-82
2023/01/23 05:19:28;;;;;;;10.93;7.60;;;17.80;73.80;;;18.59;41.52;100242.28;5063169;27;20047;-82
2023/01/23 05:21:54;;;;;;;11.13;8.05;;;17.70;73.80;;;18.62;41.37;100240.88;5082368;27;20035;-83
2023/01/23 05:24:20;;;;;;;11.00;8.18;;;17.70;73.70;;;18.62;41.56;100249.13;5082992;27;20042;-82
2023/01/23 05:26:46;;;;;;;10.13;8.00;;;17.70;73.80;;;18.63;41.50;100250.78;5067738;27;20072;-83
2023/01/23 05:29:12;;;;;;;10.02;7.57;;;17.70;73.80;;;18.68;41.47;100255.41;5097752;27;20050;-83
2023/01/23 05:31:38;;;;;;;11.48;7.63;;;17.70;73.70;;;18.65;41.46;100271.38;5111078;27;20039;-83
2023/01/23 05:34:04;;;;;;;12.07;7.53;;;17.80;73.80;;;18.66;41.31;100272.19;5099381;27;20044;-83
2023/01/23 05:36:30;;;;;;;12.20;8.68;;;17.80;73.70;;;18.67;41.42;100271.06;5079779;27;20043;-83
2023/01/23 05:38:57;;;;;;;11.90;8.52;;;17.80;73.50;;;18.66;41.26;100266.69;5078986;27;20036;-83
2023/01/23 05:41:23;;;;;;;10.38;6.97;;;17.80;73.30;;;18.68;41.19;100264.47;5118136;27;20147;-81
2023/01/23 05:43:51;;;;;;;12.25;7.90;;;17.80;73.40;;;18.64;41.51;100269.72;5119831;27;20537;-81
2023/01/23 05:46:17;;;;;;;10.13;7.55;;;17.80;73.50;;;18.64;41.24;100274.41;5099853;27;20039;-81
2023/01/23 05:48:47;;;;;;;9.63;7.82;;;17.80;73.30;;;18.63;41.38;100278.25;5086591;27;20040;-81
2023/01/23 05:51:13;;;;;;;10.48;7.78;;;17.80;73.30;;;18.66;41.26;100281.22;5087127;27;20039;-81
2023/01/23 05:53:39;;;;;;;9.98;7.03;;;17.80;73.30;;;18.65;41.24;100279.63;5099132;27;20466;-81
2023/01/23 05:56:07;;;;;;;9.80;7.38;;;17.80;73.30;;;18.66;41.24;100277.69;5099008;27;20071;-81
2023/01/23 05:58:36;;;;;;;10.15;7.57;;;17.80;73.30;;;18.65;41.06;100282.34;5069951;27;20049;-80
2023/01/23 06:01:03;;;;;;;9.88;7.68;;;17.80;73.30;;;18.68;41.27;100291.94;5102041;27;20041;-81
2023/01/23 06:03:29;;;;;;;11.05;7.45;;;17.80;73.30;;;18.66;41.33;100299.66;5079159;27;20050;-81
2023/01/23 06:05:55;;;;;;;9.85;7.43;;;17.80;73.30;;;18.65;41.24;100304.34;5096032;27;20039;-80
2023/01/23 06:08:21;;;;;;;9.48;7.50;;;17.80;73.20;;;18.68;41.36;100304.88;5093583;27;20562;-80
2023/01/23 06:10:47;;;;;;;11.38;7.05;;;17.80;73.30;;;18.67;41.16;100306.78;5076642;27;20040;-80
2023/01/23 06:13:13;;;;;;;11.82;7.82;;;17.80;73.40;;;18.64;41.11;100307.38;5099009;27;20092;-80
2023/01/23 06:15:39;;;;;;;9.52;7.15;;;17.80;73.30;;;18.65;41.06;100311.78;5079545;27;20133;-80
2023/01/23 06:18:05;;;;;;;11.73;6.90;;;17.80;73.10;;;18.66;41.22;100316.16;5063994;27;20043;-81
2023/01/23 06:20:31;;;;;;;9.43;6.88;;;17.80;73.10;;;18.66;41.23;100324.41;5078928;27;20035;-80
2023/01/23 06:22:57;;;;;;;9.05;6.38;;;17.80;73.30;;;18.64;41.10;100318.38;5110261;27;20122;-80
2023/01/23 06:25:23;;;;;;;10.43;7.60;;;17.70;73.40;;;18.65;41.17;100325.53;5078474;27;20080;-80
2023/01/23 06:27:50;;;;;;;9.30;7.75;;;17.70;73.20;;;18.65;41.17;100331.03;5098097;27;20433;-83
2023/01/23 06:30:16;;;;;;;10.18;7.03;;;17.80;73.10;;;18.64;41.24;100330.16;5064939;27;20039;-82
2023/01/23 06:32:42;;;;;;;10.27;7.25;;;17.80;73.10;;;18.65;41.10;100331.81;5081267;27;20047;-82
2023/01/23 06:35:08;;;;;;;7.57;6.40;;;17.80;73.10;;;18.68;41.15;100335.94;5091934;27;20114;-82
2023/01/23 06:37:34;;;;;;;12.38;7.68;;;17.80;73.10;;;18.65;41.01;100331.03;5093245;28;20039;-83
2023/01/23 06:40:01;;;;;;;11.13;7.72;;;17.80;73.20;;;18.65;41.06;100337.31;5093049;27;20047;-82
2023/01/23 06:42:27;;;;;;;11.30;7.38;;;17.80;73.00;;;18.64;41.24;100340.34;5057303;27;20039;-82
2023/01/23 06:44:53;;;;;;;8.15;6.40;;;17.70;73.20;;;18.67;40.96;100342.50;5061864;27;20050;-82
2023/01/23 06:47:19;;;;;;;8.73;7.43;;;17.80;73.30;;;18.63;41.17;100338.72;5113315;28;20043;-83
2023/01/23 06:49:45;;;;;;;8.98;6.45;;;17.80;73.20;;;18.57;41.19;100337.13;5094603;28;20092;-83
2023/01/23 06:52:11;;;;;;;7.32;6.30;;;17.70;73.20;;;18.69;41.13;100343.06;5095943;28;20054;-82
2023/01/23 06:54:37;;;;;;;9.05;6.80;;;17.70;73.40;;;18.69;40.92;100347.72;5070822;28;20039;-83
2023/01/23 06:57:04;;;;;;;8.82;6.72;;;17.70;73.20;;;18.68;41.01;100341.41;5116691;28;20466;-83
2023/01/23 06:59:31;;;;;;;7.13;6.22;;;17.70;73.10;;;18.65;41.10;100348.31;5084297;28;20047;-83
2023/01/23 07:01:57;;;;;;;9.95;7.05;;;17.70;73.20;;;18.62;41.24;100354.41;5100595;28;20069;-83
2023/01/23 07:04:23;;;;;;;7.57;6.30;;;17.70;73.30;;;18.64;41.15;100352.16;5097174;28;20047;-83
2023/01/23 07:06:49;;;;;;;10.57;7.22;;;17.70;73.30;;;18.66;41.06;100355.44;5060370;28;20043;-83
2023/01/23 07:09:16;;;;;;;9.05;6.85;;;17.70;73.20;;;18.63;41.14;100360.72;5078231;28;20074;-83
2023/01/23 07:11:42;;;;;;;9.07;6.72;;;17.70;73.20;;;18.60;40.96;100355.81;5098122;28;20062;-83
2023/01/23 07:14:08;;;;;;;8.10;6.22;;;17.70;73.20;;;18.64;40.98;100367.84;5081086;28;20043;-83
2023/01/23 07:16:35;;;;;;;6.60;5.85;;;17.70;73.00;;;18.68;40.92;100359.84;5113701;28;20398;-83
2023/01/23 07:19:02;;;;;;;10.18;6.55;;;17.70;73.00;;;18.66;40.92;100360.13;5084537;28;20038;-83
2023/01/23 07:21:28;;;;;;;9.63;7.20;;;17.70;73.00;;;18.66;40.99;100363.69;5061862;28;20118;-82
2023/01/23 07:23:54;;;;;;;8.10;6.90;;;17.70;73.10;;;18.68;41.06;100363.41;5065601;28;20039;-83
2023/01/23 07:26:20;;;;;;;9.43;6.63;;;17.70;73.20;;;18.66;40.89;100360.13;5097934;28;20099;-82
2023/01/23 07:28:46;;;;;;;8.63;6.70;;;17.70;73.10;;;18.65;40.86;100355.75;5101479;28;20050;-83
2023/01/23 07:31:13;;;;;;;8.25;5.70;;;17.70;73.00;;;18.65;41.02;100359.31;5099667;28;20118;-82
2023/01/23 07:33:39;;;;;;;8.05;6.45;;;17.70;73.00;;;18.64;40.91;100357.66;5064516;28;20035;-83
2023/01/23 07:36:07;;;;;;;9.85;6.50;;;17.70;72.90;;;18.71;40.79;100362.00;5082525;28;20039;-83
2023/01/23 07:38:33;;;;;;;6.88;5.88;;;17.70;73.00;;;18.70;40.75;100363.09;5116927;28;20047;-83
2023/01/23 07:41:00;;;;;;;8.88;6.35;;;17.70;72.90;;;18.69;41.06;100364.22;5067021;28;20043;-83
2023/01/23 07:43:26;;;;;;;7.82;5.68;;;17.70;73.00;;;18.69;40.66;100362.28;5095202;28;20049;-83
2023/01/23 07:45:52;;;;;;;7.45;6.13;;;17.70;73.10;;;18.67;40.96;100367.25;5065309;28;20123;-82
2023/01/23 07:48:18;;;;;;;7.78;6.32;;;17.70;72.90;;;18.68;40.81;100368.09;5113604;28;20039;-83
2023/01/23 07:50:44;;;;;;;10.02;7.10;;;17.70;72.90;;;18.69;40.88;100370.53;5062169;28;20043;-82
2023/01/23 07:53:10;;;;;;;7.40;6.03;;;17.70;72.90;;;18.69;40.92;100378.78;5108849;28;20039;-82
2023/01/23 07:55:37;;;;;;;8.27;6.38;;;17.70;72.90;;;18.69;40.59;100376.03;5079883;27;20045;-82
2023/01/23 07:58:03;;;;;;;9.02;6.32;;;17.80;72.90;;;18.70;40.74;100383.19;5061739;27;20054;-82
2023/01/23 08:00:29;;;;;;;7.15;6.45;;;17.70;72.90;;;18.71;40.73;100384.00;5099722;27;20042;-82
2023/01/23 08:02:56;;;;;;;8.57;6.68;;;17.70;72.90;;;18.70;40.81;100394.19;5102232;27;20122;-82
2023/01/23 08:05:22;;;;;;;8.60;6.90;;;17.70;72.90;;;18.66;40.77;100387.63;5064279;27;20044;-82
2023/01/23 08:07:48;;;;;;;8.30;7.03;;;17.70;72.90;;;18.66;40.83;100387.63;5098291;27;20054;-83
2023/01/23 08:10:14;;;;;;;9.63;6.15;;;17.70;72.90;;;18.68;40.74;100388.16;5081652;28;20044;-83
2023/01/23 08:12:40;;;;;;;8.82;5.95;;;17.70;72.80;;;18.68;40.74;100385.41;5094901;28;20038;-83
2023/01/23 08:15:07;;;;;;;10.18;6.72;;;17.70;72.80;;;18.70;40.92;100393.34;5095663;28;20036;-83
2023/01/23 08:17:35;;;;;;;8.77;6.93;;;17.70;72.90;;;18.69;40.85;100409.00;5096566;28;20561;-83
2023/01/23 08:20:01;;;;;;;6.63;5.65;;;17.70;73.10;;;18.69;40.86;100402.72;5097489;28;20099;-83
2023/01/23 08:22:27;;;;;;;12.80;6.97;;;17.80;73.20;;;18.70;40.98;100409.84;5098316;28;20118;-83
2023/01/23 08:24:53;;;;;;;8.45;6.15;;;17.80;73.30;;;18.67;40.89;100402.97;5081913;28;20036;-83
2023/01/23 08:27:19;;;;;;;9.20;6.15;;;17.70;73.10;;;18.70;40.94;100401.59;5075881;28;20071;-83
2023/01/23 08:29:45;;;;;;;9.52;6.65;;;17.70;73.20;;;18.70;40.85;100407.09;5092367;28;20383;-82
2023/01/23 08:32:11;;;;;;;13.93;7.53;;;17.70;73.30;;;18.71;40.78;100408.75;5108339;28;20039;-82
2023/01/23 08:34:37;;;;;;;12.43;7.40;;;17.70;73.20;;;18.69;40.81;100413.69;5073746;28;20541;-82
2023/01/23 08:37:03;;;;;;;9.85;6.63;;;17.70;73.10;;;18.68;40.77;100407.38;5034466;28;20044;-82
2023/01/23 08:39:30;;;;;;;12.90;7.25;;;17.70;73.00;;;18.67;40.81;100411.22;5109242;28;20070;-83
2023/01/23 08:41:56;;;;;;;11.32;7.10;;;17.70;73.00;;;18.69;40.73;100417.25;5089942;28;20046;-83
2023/01/23 08:44:23;;;;;;;12.90;6.75;;;17.70;73.00;;;18.69;40.85;100414.50;5105752;28;20042;-83
2023/01/23 08:46:49;;;;;;;11.02;6.85;;;17.70;73.10;;;18.71;40.90;100417.00;5093711;28;20750;-83
2023/01/23 08:49:18;;;;;;;9.63;7.47;;;17.70;73.10;;;18.67;40.83;100422.22;5110267;28;20062;-83
2023/01/23 08:51:45;;;;;;;16.70;9.00;;;17.70;73.00;;;18.68;40.79;100426.63;5112156;28;20040;-83
2023/01/23 08:54:11;;;;;;;16.25;8.05;;;17.70;73.00;;;18.68;40.96;100423.06;5093531;28;20032;-83
2023/01/23 08:56:40;;;;;;;13.50;7.07;;;17.70;73.00;;;18.69;40.88;100422.75;5081520;28;20047;-83
2023/01/23 08:59:05;;;;;;;13.65;8.05;;;17.70;72.80;;;18.68;40.51;100429.38;5060553;28;20044;-83
2023/01/23 09:01:32;;;;;;;14.27;8.18;;;17.70;72.80;;;18.70;40.92;100431.81;5083290;28;20035;-83
2023/01/23 09:03:58;;;;;;;14.48;8.50;;;17.70;72.90;;;18.68;40.65;100425.81;5080274;28;20046;-83
2023/01/23 09:06:24;;;;;;;12.25;7.63;;;17.70;73.00;;;18.67;40.66;100419.47;5100159;28;20048;-82
2023/01/23 09:08:50;;;;;;;15.38;8.32;;;17.70;73.00;;;18.69;40.84;100424.69;5113981;27;20890;-83
2023/01/23 09:11:21;;;;;;;18.90;8.23;;;17.70;72.90;;;18.67;40.59;100416.72;5110995;27;20688;-82
2023/01/23 09:13:50;;;;;;;15.23;8.35;;;17.70;72.80;;;18.65;40.90;100430.78;5098870;27;20363;-83
2023/01/23 09:16:17;;;;;;;15.00;7.80;;;17.70;72.80;;;18.64;40.91;100426.38;5066027;27;20305;-82
2023/01/23 09:18:43;;;;;;;11.77;7.68;;;17.70;72.80;;;18.66;40.69;100424.16;5064877;27;20051;-82
2023/01/23 09:21:16;;;;;;;14.80;8.63;;;17.70;72.80;;;18.64;40.81;100420.88;5075301;27;20044;-83
2023/01/23 09:23:42;;;;;;;14.05;8.15;;;17.70;72.90;;;18.67;40.80;100422.22;5064000;27;20154;-83
2023/01/23 09:26:10;;;;;;;19.58;8.32;;;17.70;72.80;;;18.70;40.64;100420.81;5064598;27;20094;-83
2023/01/23 09:28:38;;;;;;;14.30;8.93;;;17.70;72.70;;;18.68;40.73;100418.38;5090368;27;20040;-83
2023/01/23 09:31:08;;;;;;;16.75;9.25;;;17.70;72.70;;;18.67;40.54;100416.72;5065222;27;20035;-81
2023/01/23 09:33:35;;;;;;;13.75;8.57;;;17.70;72.80;;;18.69;40.61;100413.69;5095861;27;20456;-81
2023/01/23 09:36:02;;;;;;;15.90;9.45;;;17.70;72.80;;;18.65;40.62;100418.97;5080764;27;20040;-81
2023/01/23 09:38:29;;;;;;;18.73;7.88;;;17.70;72.80;;;18.64;40.79;100415.38;5094395;27;20071;-81
2023/01/23 09:40:59;;;;;;;17.55;9.02;;;17.70;72.80;;;18.69;40.68;100420.00;5079686;27;20039;-81
2023/01/23 09:43:31;;;;;;;16.73;7.72;;;17.70;72.80;;;18.69;40.70;100417.25;5097713;27;20035;-80
2023/01/23 09:46:09;;;;;;;17.50;8.32;;;17.60;72.70;;;18.65;40.73;100411.53;5133042;27;20469;-81
2023/01/23 09:48:47;;;;;;;16.80;8.85;;;17.60;72.70;;;18.66;40.42;100426.09;5128322;27;20054;-81
2023/01/23 09:51:44;;;;;;;15.35;8.77;;;17.70;72.60;;;18.63;40.80;100421.19;5094587;27;20045;-81
2023/01/23 09:54:27;;;;;;;18.05;9.82;;;17.70;72.50;;;18.64;40.48;100412.63;5102350;27;20066;-81
2023/01/23 09:56:54;;;;;;;15.85;9.27;;;17.70;72.70;;;18.66;40.66;100415.91;5131941;27;20054;-82
2023/01/23 09:59:36;;;;;;;13.60;8.88;;;17.70;72.70;;;18.64;40.70;100418.13;5077618;27;20047;-81
2023/01/23 10:02:18;;;;;;;15.32;9.05;;;17.70;72.70;;;18.64;41.00;100409.88;5112962;27;20039;-81
2023/01/23 10:04:49;;;;;;;18.13;10.52;;;17.70;72.90;;;18.65;40.86;100408.78;5093177;27;20063;-81
2023/01/23 10:08:16;;;;;;;22.52;9.52;;;17.70;73.00;;;18.64;40.80;100400.81;5100987;27;20035;-82
2023/01/23 10:11:09;;;;;;;19.17;8.57;;;17.70;72.90;;;18.63;40.70;100401.94;5028906;28;20064;-81
2023/01/23 10:14:21;;;;;;;17.67;9.27;;;17.70;72.80;;;18.67;40.55;100397.47;5029293;28;20102;-81
2023/01/23 10:16:58;;;;;;;19.60;9.45;;;17.70;72.70;;;18.64;40.69;100401.63;5102536;28;20117;-81